createdAt,value
2018-05-25T00:00:57.653Z,19.83
2018-05-25T00:02:06.799Z,19.77
2018-05-25T00:03:15.665Z,19.69
2018-05-25T00:04:24.581Z,19.66
2018-05-25T00:05:33.445Z,19.69
2018-05-25T00:06:42.308Z,19.61
2018-05-25T00:07:51.171Z,19.58
2018-05-25T00:09:00.033Z,19.56
2018-05-25T00:10:09.906Z,19.59
2018-05-25T00:11:18.773Z,19.63
2018-05-25T00:12:27.914Z,19.59
2018-05-25T00:13:36.780Z,19.62
2018-05-25T00:14:45.645Z,19.55
2018-05-25T00:15:54.557Z,19.4
2018-05-25T00:17:03.420Z,19.33
2018-05-25T00:18:12.557Z,19.41
2018-05-25T00:19:21.418Z,19.41
2018-05-25T00:20:30.277Z,19.41
2018-05-25T00:21:39.192Z,19.23
2018-05-25T00:22:48.057Z,19.4
2018-05-25T00:23:56.917Z,19.26
2018-05-25T00:25:06.060Z,19.19
2018-05-25T00:26:14.920Z,19.19
2018-05-25T00:27:24.063Z,19.06
2018-05-25T00:28:32.927Z,19.13
2018-05-25T00:29:42.066Z,19.08
2018-05-25T00:30:51.208Z,19.23
2018-05-25T00:32:00.346Z,19.07
2018-05-25T00:33:09.310Z,18.95
2018-05-25T00:34:18.172Z,18.91
2018-05-25T00:35:27.310Z,18.95
2018-05-25T00:36:36.169Z,18.92
2018-05-25T00:37:45.032Z,18.92
2018-05-25T00:38:54.223Z,18.94
2018-05-25T00:40:03.084Z,18.95
2018-05-25T00:41:11.948Z,18.82
2018-05-25T00:42:20.812Z,18.82
2018-05-25T00:43:29.674Z,18.76
2018-05-25T00:44:38.811Z,18.81
2018-05-25T00:45:47.673Z,18.75
2018-05-25T00:46:56.541Z,18.73
2018-05-25T00:48:05.395Z,18.69
2018-05-25T00:49:14.260Z,18.82
2018-05-25T00:50:23.286Z,18.9
2018-05-25T00:51:32.438Z,18.72
2018-05-25T00:52:41.305Z,18.65
2018-05-25T00:53:51.001Z,18.69
2018-05-25T00:55:00.139Z,18.63
2018-05-25T00:56:09.000Z,18.6
2018-05-25T00:57:17.861Z,18.6
2018-05-25T00:58:26.726Z,18.48
2018-05-25T00:59:35.588Z,18.52
2018-05-25T01:00:44.456Z,18.5
2018-05-25T01:01:53.314Z,18.5
2018-05-25T01:03:02.456Z,18.45
2018-05-25T01:04:11.593Z,18.51
2018-05-25T01:05:20.457Z,18.55
2018-05-25T01:06:29.874Z,18.45
2018-05-25T01:07:39.087Z,18.57
2018-05-25T01:08:48.240Z,18.44
2018-05-25T01:09:57.102Z,18.35
2018-05-25T01:11:06.541Z,18.35
2018-05-25T01:12:15.403Z,18.3
2018-05-25T01:13:24.895Z,18.2
2018-05-25T01:14:34.037Z,18.23
2018-05-25T01:15:42.901Z,18.32
2018-05-25T01:16:51.765Z,18.18
2018-05-25T01:18:00.627Z,18.1
2018-05-25T01:19:10.200Z,18.41
2018-05-25T01:20:19.067Z,18.3
2018-05-25T01:21:27.929Z,18.2
2018-05-25T01:22:37.072Z,18.32
2018-05-25T01:23:45.935Z,18.42
2018-05-25T01:24:55.177Z,18.36
2018-05-25T01:26:04.317Z,18.42
2018-05-25T01:27:13.178Z,18.32
2018-05-25T01:28:22.041Z,18.25
2018-05-25T01:29:30.914Z,18.14
2018-05-25T01:30:39.814Z,18.21
2018-05-25T01:31:48.956Z,18.2
2018-05-25T01:32:57.817Z,18.18
2018-05-25T01:34:06.780Z,18.21
2018-05-25T01:35:15.645Z,18.17
2018-05-25T01:36:24.935Z,18.18
2018-05-25T01:37:33.796Z,18.2
2018-05-25T01:38:42.933Z,18.08
2018-05-25T01:39:52.350Z,18.14
2018-05-25T01:41:01.213Z,18.02
2018-05-25T01:42:10.506Z,18.14
2018-05-25T01:43:19.370Z,18.03
2018-05-25T01:44:28.232Z,18.03
2018-05-25T01:45:37.093Z,18.03
2018-05-25T01:46:45.956Z,18.02
2018-05-25T01:47:54.822Z,18.07
2018-05-25T01:49:04.237Z,17.95
2018-05-25T01:50:13.098Z,18.02
2018-05-25T01:51:22.518Z,18.03
2018-05-25T01:52:31.656Z,17.99
2018-05-25T01:53:40.673Z,17.87
2018-05-25T01:54:49.534Z,17.81
2018-05-25T01:55:58.396Z,17.86
2018-05-25T01:57:07.536Z,17.74
2018-05-25T01:58:16.403Z,17.72
2018-05-25T01:59:25.557Z,17.78
2018-05-25T02:00:34.411Z,17.74
2018-05-25T02:01:43.272Z,17.64
2018-05-25T02:02:52.139Z,17.68
2018-05-25T02:04:01.000Z,17.66
2018-05-25T02:05:09.862Z,17.59
2018-05-25T02:06:18.724Z,17.7
2018-05-25T02:07:27.588Z,17.71
2018-05-25T02:08:36.449Z,17.75
2018-05-25T02:09:45.865Z,17.64
2018-05-25T02:10:55.164Z,17.52
2018-05-25T02:12:04.302Z,17.55
2018-05-25T02:13:13.163Z,17.55
2018-05-25T02:14:22.027Z,17.58
2018-05-25T02:15:30.886Z,17.54
2018-05-25T02:16:39.795Z,17.48
2018-05-25T02:17:48.946Z,17.49
2018-05-25T02:18:57.808Z,17.51
2018-05-25T02:20:06.955Z,17.46
2018-05-25T02:21:15.819Z,17.37
2018-05-25T02:22:24.836Z,17.4
2018-05-25T02:23:33.696Z,17.38
2018-05-25T02:24:42.555Z,17.41
2018-05-25T02:25:51.416Z,17.49
2018-05-25T02:27:00.833Z,17.52
2018-05-25T02:28:09.702Z,17.51
2018-05-25T02:29:18.563Z,17.46
2018-05-25T02:30:27.700Z,17.38
2018-05-25T02:31:36.565Z,17.31
2018-05-25T02:32:45.432Z,17.28
2018-05-25T02:33:54.399Z,17.43
2018-05-25T02:35:03.264Z,17.43
2018-05-25T02:36:12.126Z,17.34
2018-05-25T02:37:21.267Z,17.31
2018-05-25T02:38:30.132Z,17.41
2018-05-25T02:39:39.104Z,17.25
2018-05-25T02:40:48.251Z,17.18
2018-05-25T02:41:57.406Z,17.23
2018-05-25T02:43:06.262Z,17.16
2018-05-25T02:44:15.124Z,17.21
2018-05-25T02:45:24.312Z,17.15
2018-05-25T02:46:33.176Z,17.3
2018-05-25T02:47:42.038Z,17.34
2018-05-25T02:48:51.103Z,17.16
2018-05-25T02:50:00.245Z,17.03
2018-05-25T02:51:09.541Z,17.18
2018-05-25T02:52:18.697Z,17.18
2018-05-25T02:53:27.841Z,17.22
2018-05-25T02:54:36.982Z,17.11
2018-05-25T02:55:46.128Z,16.94
2018-05-25T02:56:55.001Z,17
2018-05-25T02:58:04.147Z,16.97
2018-05-25T02:59:13.010Z,17.03
2018-05-25T03:00:22.159Z,17.04
2018-05-25T03:01:31.024Z,17.07
2018-05-25T03:02:40.511Z,17.06
2018-05-25T03:03:49.375Z,16.97
2018-05-25T03:04:58.510Z,16.96
2018-05-25T03:06:07.957Z,17.03
2018-05-25T03:07:17.111Z,16.96
2018-05-25T03:08:26.251Z,16.96
2018-05-25T03:09:35.112Z,16.91
2018-05-25T03:10:43.988Z,16.97
2018-05-25T03:11:53.394Z,17
2018-05-25T03:13:02.259Z,17
2018-05-25T03:14:11.171Z,16.98
2018-05-25T03:15:20.036Z,17.04
2018-05-25T03:16:29.176Z,16.96
2018-05-25T03:17:38.044Z,16.94
2018-05-25T03:18:46.900Z,16.94
2018-05-25T03:19:56.045Z,16.88
2018-05-25T03:21:05.180Z,17.03
2018-05-25T03:22:14.041Z,16.88
2018-05-25T03:23:22.901Z,16.98
2018-05-25T03:24:31.762Z,16.91
2018-05-25T03:25:41.003Z,16.79
2018-05-25T03:26:49.865Z,16.85
2018-05-25T03:27:58.722Z,16.82
2018-05-25T03:29:07.862Z,16.81
2018-05-25T03:30:16.732Z,16.78
2018-05-25T03:31:25.975Z,16.81
2018-05-25T03:32:35.120Z,16.68
2018-05-25T03:33:43.979Z,16.73
2018-05-25T03:34:52.843Z,16.7
2018-05-25T03:36:01.708Z,16.79
2018-05-25T03:37:10.620Z,16.71
2018-05-25T03:38:19.481Z,16.76
2018-05-25T03:39:28.345Z,16.83
2018-05-25T03:40:37.491Z,16.94
2018-05-25T03:41:46.353Z,16.94
2018-05-25T03:42:55.213Z,16.89
2018-05-25T03:44:04.073Z,16.82
2018-05-25T03:45:12.935Z,16.83
2018-05-25T03:46:21.798Z,16.94
2018-05-25T03:47:30.661Z,16.81
2018-05-25T03:48:39.877Z,16.81
2018-05-25T03:49:48.736Z,16.76
2018-05-25T03:50:57.601Z,16.81
2018-05-25T03:52:06.757Z,16.76
2018-05-25T03:53:15.607Z,16.75
2018-05-25T03:54:24.953Z,16.75
2018-05-25T03:55:33.859Z,16.73
2018-05-25T03:56:42.996Z,16.68
2018-05-25T03:57:51.857Z,16.78
2018-05-25T03:59:00.723Z,16.82
2018-05-25T04:00:09.782Z,16.85
2018-05-25T04:01:18.645Z,16.78
2018-05-25T04:02:27.513Z,16.76
2018-05-25T04:03:36.370Z,16.76
2018-05-25T04:04:45.235Z,16.75
2018-05-25T04:05:54.521Z,16.67
2018-05-25T04:07:03.387Z,16.68
2018-05-25T04:08:12.813Z,16.71
2018-05-25T04:09:21.676Z,16.64
2018-05-25T04:10:30.539Z,16.7
2018-05-25T04:11:39.600Z,16.7
2018-05-25T04:12:48.748Z,16.7
2018-05-25T04:13:57.612Z,16.73
2018-05-25T04:15:06.477Z,16.75
2018-05-25T04:16:15.385Z,16.7
2018-05-25T04:17:24.678Z,16.73
2018-05-25T04:18:33.539Z,16.73
2018-05-25T04:19:42.401Z,16.78
2018-05-25T04:20:51.265Z,16.71
2018-05-25T04:22:00.126Z,16.73
2018-05-25T04:23:08.986Z,16.75
2018-05-25T04:24:17.847Z,16.85
2018-05-25T04:25:26.715Z,16.81
2018-05-25T04:26:35.580Z,16.98
2018-05-25T04:27:44.447Z,16.75
2018-05-25T04:28:53.736Z,16.81
2018-05-25T04:30:02.596Z,16.97
2018-05-25T04:31:11.459Z,16.82
2018-05-25T04:32:20.321Z,16.81
2018-05-25T04:33:29.462Z,16.89
2018-05-25T04:34:38.327Z,16.78
2018-05-25T04:35:47.185Z,16.88
2018-05-25T04:36:56.332Z,16.94
2018-05-25T04:38:05.471Z,16.83
2018-05-25T04:39:14.343Z,16.75
2018-05-25T04:40:23.637Z,16.78
2018-05-25T04:41:32.774Z,16.89
2018-05-25T04:42:41.917Z,16.83
2018-05-25T04:43:50.775Z,16.86
2018-05-25T04:44:59.913Z,16.81
2018-05-25T04:46:09.128Z,16.81
2018-05-25T04:47:17.997Z,16.85
2018-05-25T04:48:26.863Z,16.88
2018-05-25T04:49:35.720Z,16.91
2018-05-25T04:50:44.586Z,16.83
2018-05-25T04:51:53.776Z,16.82
2018-05-25T04:53:02.962Z,16.78
2018-05-25T04:54:11.825Z,16.82
2018-05-25T04:55:20.684Z,16.83
2018-05-25T04:56:29.545Z,16.88
2018-05-25T04:57:38.736Z,16.93
2018-05-25T04:58:47.605Z,16.89
2018-05-25T04:59:56.748Z,16.81
2018-05-25T05:01:05.615Z,16.88
2018-05-25T05:02:14.757Z,16.89
2018-05-25T05:03:23.720Z,16.88
2018-05-25T05:04:32.582Z,16.94
2018-05-25T05:05:41.443Z,16.93
2018-05-25T05:06:50.305Z,16.93
2018-05-25T05:07:59.165Z,16.86
2018-05-25T05:09:08.126Z,17.11
2018-05-25T05:10:16.990Z,17.12
2018-05-25T05:11:25.852Z,17.06
2018-05-25T05:12:34.714Z,17.01
2018-05-25T05:13:43.851Z,16.93
2018-05-25T05:14:53.023Z,17.07
2018-05-25T05:16:01.833Z,17.08
2018-05-25T05:17:10.970Z,17.18
2018-05-25T05:18:19.833Z,17.28
2018-05-25T05:19:28.693Z,17.19
2018-05-25T05:20:37.706Z,17.18
2018-05-25T05:21:46.581Z,17.18
2018-05-25T05:22:55.443Z,17.19
2018-05-25T05:24:04.601Z,17.23
2018-05-25T05:25:14.021Z,17.23
2018-05-25T05:26:23.550Z,17.25
2018-05-25T05:27:32.410Z,17.18
2018-05-25T05:28:41.273Z,17.19
2018-05-25T05:29:50.139Z,17.26
2018-05-25T05:30:59.281Z,17.26
2018-05-25T05:32:08.150Z,17.33
2018-05-25T05:33:17.014Z,17.43
2018-05-25T05:34:25.877Z,17.46
2018-05-25T05:35:35.015Z,17.41
2018-05-25T05:36:44.163Z,17.33
2018-05-25T05:37:53.176Z,17.37
2018-05-25T05:39:02.039Z,17.46
2018-05-25T05:40:11.180Z,17.48
2018-05-25T05:41:20.043Z,17.55
2018-05-25T05:42:29.187Z,17.54
2018-05-25T05:43:38.959Z,17.71
2018-05-25T05:44:48.106Z,17.7
2018-05-25T05:45:56.970Z,17.63
2018-05-25T05:47:06.108Z,17.7
2018-05-25T05:48:14.984Z,17.68
2018-05-25T05:49:24.085Z,17.74
2018-05-25T05:50:33.230Z,17.78
2018-05-25T05:51:42.092Z,17.75
2018-05-25T05:52:50.956Z,17.78
2018-05-25T05:53:59.818Z,17.77
2018-05-25T05:55:08.730Z,17.92
2018-05-25T05:56:17.597Z,17.89
2018-05-25T05:57:26.458Z,17.92
2018-05-25T05:58:35.880Z,17.9
2018-05-25T05:59:44.740Z,17.95
2018-05-25T06:00:53.757Z,17.97
2018-05-25T06:02:02.619Z,18
2018-05-25T06:03:11.757Z,18.1
2018-05-25T06:04:20.659Z,18.08
2018-05-25T06:05:29.500Z,18.14
2018-05-25T06:06:38.640Z,18.2
2018-05-25T06:07:48.073Z,18.23
2018-05-25T06:08:56.942Z,18.23
2018-05-25T06:10:06.081Z,18.32
2018-05-25T06:11:15.233Z,18.26
2018-05-25T06:12:24.151Z,18.32
2018-05-25T06:13:32.957Z,18.32
2018-05-25T06:14:41.823Z,18.37
2018-05-25T06:15:50.960Z,18.41
2018-05-25T06:16:59.823Z,18.63
2018-05-25T06:18:08.796Z,18.44
2018-05-25T06:19:17.665Z,18.55
2018-05-25T06:20:26.805Z,18.57
2018-05-25T06:21:35.671Z,18.73
2018-05-25T06:22:44.540Z,18.65
2018-05-25T06:23:53.505Z,18.75
2018-05-25T06:25:02.927Z,18.75
2018-05-25T06:26:11.847Z,18.8
2018-05-25T06:27:20.705Z,18.76
2018-05-25T06:28:29.564Z,18.87
2018-05-25T06:29:38.580Z,18.95
2018-05-25T06:30:47.724Z,18.92
2018-05-25T06:31:56.586Z,18.92
2018-05-25T06:33:05.450Z,19.02
2018-05-25T06:34:14.313Z,18.95
2018-05-25T06:35:23.707Z,18.94
2018-05-25T06:36:32.569Z,19
2018-05-25T06:37:41.711Z,19.11
2018-05-25T06:38:50.856Z,19.07
2018-05-25T06:39:59.719Z,19.08
2018-05-25T06:41:08.938Z,19.19
2018-05-25T06:42:17.817Z,19.21
2018-05-25T06:43:26.679Z,19.22
2018-05-25T06:44:35.827Z,19.23
2018-05-25T06:45:44.982Z,19.29
2018-05-25T06:46:54.174Z,19.46
2018-05-25T06:48:03.038Z,19.51
2018-05-25T06:49:11.907Z,19.48
2018-05-25T06:50:20.773Z,19.44
2018-05-25T06:51:29.633Z,19.54
2018-05-25T06:52:38.649Z,19.58
2018-05-25T06:53:47.511Z,19.68
2018-05-25T06:54:56.375Z,19.73
2018-05-25T06:56:05.245Z,19.8
2018-05-25T06:57:14.109Z,19.8
2018-05-25T06:58:23.427Z,19.83
2018-05-25T06:59:32.291Z,19.81
2018-05-25T07:00:41.432Z,19.87
2018-05-25T07:01:50.295Z,19.87
2018-05-25T07:02:59.439Z,19.94
2018-05-25T07:04:08.927Z,20.06
2018-05-25T07:05:18.342Z,20.1
2018-05-25T07:06:27.485Z,20.1
2018-05-25T07:07:36.348Z,20.18
2018-05-25T07:08:45.246Z,20.21
2018-05-25T07:09:54.460Z,20.18
2018-05-25T07:11:03.601Z,20.32
2018-05-25T07:12:12.470Z,20.32
2018-05-25T07:13:21.337Z,20.35
2018-05-25T07:14:30.199Z,20.41
2018-05-25T07:15:39.115Z,20.38
2018-05-25T07:16:47.977Z,20.47
2018-05-25T07:17:57.126Z,20.64
2018-05-25T07:19:05.992Z,20.66
2018-05-25T07:20:14.856Z,20.66
2018-05-25T07:21:24.046Z,20.7
2018-05-25T07:22:32.907Z,20.74
2018-05-25T07:23:41.772Z,20.79
2018-05-25T07:24:50.638Z,20.84
2018-05-25T07:25:59.778Z,20.89
2018-05-25T07:27:09.343Z,20.95
2018-05-25T07:28:18.481Z,21.03
2018-05-25T07:29:27.345Z,21.13
2018-05-25T07:30:36.209Z,21.12
2018-05-25T07:31:45.349Z,21.12
2018-05-25T07:32:54.669Z,21.13
2018-05-25T07:34:03.812Z,21.12
2018-05-25T07:35:13.232Z,21.13
2018-05-25T07:36:22.099Z,21.25
2018-05-25T07:37:30.962Z,21.27
2018-05-25T07:38:39.978Z,21.32
2018-05-25T07:39:48.842Z,21.52
2018-05-25T07:40:57.706Z,21.59
2018-05-25T07:42:06.848Z,21.59
2018-05-25T07:43:15.714Z,21.67
2018-05-25T07:44:24.954Z,21.65
2018-05-25T07:45:34.097Z,21.74
2018-05-25T07:46:42.959Z,21.77
2018-05-25T07:47:51.824Z,21.9
2018-05-25T07:49:01.091Z,21.79
2018-05-25T07:50:10.242Z,21.75
2018-05-25T07:51:19.105Z,21.86
2018-05-25T07:52:27.966Z,22
2018-05-25T07:53:36.831Z,21.92
2018-05-25T07:54:45.977Z,21.98
2018-05-25T07:55:55.324Z,21.96
2018-05-25T07:57:04.191Z,22.03
2018-05-25T07:58:13.333Z,21.91
2018-05-25T07:59:22.195Z,22.05
2018-05-25T08:00:31.058Z,22.07
2018-05-25T08:01:39.973Z,22.28
2018-05-25T08:02:48.838Z,22.28
2018-05-25T08:03:57.703Z,22.3
2018-05-25T08:05:06.566Z,22.31
2018-05-25T08:06:15.430Z,22.45
2018-05-25T08:07:24.771Z,22.46
2018-05-25T08:08:33.639Z,22.55
2018-05-25T08:09:42.785Z,22.55
2018-05-25T08:10:51.659Z,22.6
2018-05-25T08:12:00.548Z,22.61
2018-05-25T08:13:09.492Z,22.62
2018-05-25T08:14:18.356Z,22.77
2018-05-25T08:15:27.220Z,22.83
2018-05-25T08:16:36.084Z,22.79
2018-05-25T08:17:44.950Z,22.76
2018-05-25T08:18:54.445Z,22.85
2018-05-25T08:20:03.588Z,22.86
2018-05-25T08:21:12.453Z,22.91
2018-05-25T08:22:21.318Z,22.91
2018-05-25T08:23:30.180Z,22.95
2018-05-25T08:24:39.194Z,23.05
2018-05-25T08:25:48.061Z,23.15
2018-05-25T08:26:56.926Z,23.25
2018-05-25T08:28:05.792Z,23.25
2018-05-25T08:29:14.940Z,23.12
2018-05-25T08:30:24.525Z,23.15
2018-05-25T08:31:33.670Z,23.1
2018-05-25T08:32:42.814Z,23.22
2018-05-25T08:33:51.957Z,23.23
2018-05-25T08:35:00.825Z,23.39
2018-05-25T08:36:10.394Z,23.48
2018-05-25T08:37:19.261Z,23.42
2018-05-25T08:38:28.123Z,23.47
2018-05-25T08:39:36.990Z,23.51
2018-05-25T08:40:45.856Z,23.57
2018-05-25T08:41:55.080Z,23.58
2018-05-25T08:43:04.237Z,23.58
2018-05-25T08:44:13.086Z,23.7
2018-05-25T08:45:21.952Z,23.6
2018-05-25T08:46:30.828Z,23.78
2018-05-25T08:47:39.688Z,23.85
2018-05-25T08:48:48.554Z,23.83
2018-05-25T08:49:57.420Z,23.93
2018-05-25T08:51:06.289Z,23.8
2018-05-25T08:52:15.156Z,23.78
2018-05-25T08:53:24.171Z,23.88
2018-05-25T08:54:33.038Z,23.85
2018-05-25T08:55:42.461Z,24
2018-05-25T08:56:51.568Z,24
2018-05-25T08:58:00.190Z,24.05
2018-05-25T08:59:09.207Z,24.06
2018-05-25T09:00:18.074Z,24.09
2018-05-25T09:01:26.942Z,24.13
2018-05-25T09:02:36.088Z,24.21
2018-05-25T09:03:45.232Z,24.37
2018-05-25T09:04:54.204Z,24.37
2018-05-25T09:06:03.346Z,24.43
2018-05-25T09:07:12.213Z,24.46
2018-05-25T09:08:21.076Z,24.18
2018-05-25T09:09:29.941Z,24.35
2018-05-25T09:10:39.415Z,24.57
2018-05-25T09:11:48.285Z,24.6
2018-05-25T09:12:57.148Z,24.58
2018-05-25T09:14:06.015Z,24.46
2018-05-25T09:15:14.881Z,24.46
2018-05-25T09:16:23.748Z,24.55
2018-05-25T09:17:32.617Z,24.6
2018-05-25T09:18:41.485Z,24.67
2018-05-25T09:19:50.351Z,24.68
2018-05-25T09:20:59.220Z,24.67
2018-05-25T09:22:08.139Z,24.68
2018-05-25T09:23:17.005Z,24.53
2018-05-25T09:24:25.875Z,24.65
2018-05-25T09:25:34.744Z,24.78
2018-05-25T09:26:43.611Z,24.76
2018-05-25T09:27:52.629Z,24.73
2018-05-25T09:29:01.501Z,24.68
2018-05-25T09:30:10.367Z,24.69
2018-05-25T09:31:19.792Z,24.76
2018-05-25T09:32:29.214Z,24.76
2018-05-25T09:33:38.330Z,24.78
2018-05-25T09:34:47.477Z,24.8
2018-05-25T09:35:56.340Z,24.88
2018-05-25T09:37:05.207Z,25.03
2018-05-25T09:38:14.072Z,25.14
2018-05-25T09:39:23.465Z,25.1
2018-05-25T09:40:32.332Z,25.14
2018-05-25T09:41:41.203Z,25.1
2018-05-25T09:42:50.067Z,25
2018-05-25T09:43:58.934Z,25.03
2018-05-25T09:45:07.851Z,25.06
2018-05-25T09:46:16.722Z,25.05
2018-05-25T09:47:26.142Z,25.24
2018-05-25T09:48:35.010Z,25.17
2018-05-25T09:49:43.881Z,25.1
2018-05-25T09:50:52.749Z,25.2
2018-05-25T09:52:01.615Z,25.32
2018-05-25T09:53:10.480Z,25.32
2018-05-25T09:54:19.346Z,25.2
2018-05-25T09:55:28.213Z,25.36
2018-05-25T09:56:37.135Z,25.28
2018-05-25T09:57:46.282Z,25.4
2018-05-25T09:58:55.422Z,25.32
2018-05-25T10:00:05.128Z,25.36
2018-05-25T10:01:13.999Z,25.39
2018-05-25T10:02:23.213Z,25.57
2018-05-25T10:03:32.079Z,25.61
2018-05-25T10:04:40.945Z,25.58
2018-05-25T10:05:49.812Z,25.62
2018-05-25T10:06:58.681Z,25.69
2018-05-25T10:08:07.699Z,25.61
2018-05-25T10:09:16.567Z,25.7
2018-05-25T10:10:25.434Z,25.65
2018-05-25T10:11:34.299Z,25.79
2018-05-25T10:12:43.446Z,25.8
2018-05-25T10:13:52.361Z,25.8
2018-05-25T10:15:01.229Z,25.9
2018-05-25T10:16:10.095Z,25.99
2018-05-25T10:17:18.969Z,25.91
2018-05-25T10:18:27.833Z,25.91
2018-05-25T10:19:37.050Z,25.92
2018-05-25T10:20:45.922Z,25.99
2018-05-25T10:21:54.785Z,25.98
2018-05-25T10:23:03.944Z,26.07
2018-05-25T10:24:13.081Z,26.12
2018-05-25T10:25:22.105Z,26.1
2018-05-25T10:26:30.966Z,26.12
2018-05-25T10:27:39.837Z,26.1
2018-05-25T10:28:49.057Z,26.25
2018-05-25T10:29:58.239Z,26.23
2018-05-25T10:31:07.541Z,26.25
2018-05-25T10:32:16.406Z,26.28
2018-05-25T10:33:25.274Z,26.33
2018-05-25T10:34:34.143Z,26.43
2018-05-25T10:35:43.287Z,26.39
2018-05-25T10:36:52.204Z,26.4
2018-05-25T10:38:01.070Z,26.37
2018-05-25T10:39:09.939Z,26.5
2018-05-25T10:40:18.807Z,26.48
2018-05-25T10:41:27.679Z,26.43
2018-05-25T10:42:36.695Z,26.44
2018-05-25T10:43:45.564Z,26.48
2018-05-25T10:44:54.437Z,26.62
2018-05-25T10:46:03.299Z,26.65
2018-05-25T10:47:12.166Z,26.69
2018-05-25T10:48:21.383Z,26.75
2018-05-25T10:49:30.250Z,26.54
2018-05-25T10:50:39.121Z,26.63
2018-05-25T10:51:47.990Z,26.62
2018-05-25T10:52:56.857Z,26.7
2018-05-25T10:54:05.931Z,26.73
2018-05-25T10:55:15.075Z,26.75
2018-05-25T10:56:23.943Z,26.67
2018-05-25T10:57:32.818Z,26.6
2018-05-25T10:58:41.677Z,26.7
2018-05-25T10:59:50.547Z,26.8
2018-05-25T11:00:59.417Z,26.77
2018-05-25T11:02:08.289Z,26.82
2018-05-25T11:03:17.445Z,26.92
2018-05-25T11:04:26.871Z,26.92
2018-05-25T11:05:35.836Z,27.02
2018-05-25T11:06:44.703Z,27.04
2018-05-25T11:07:53.568Z,27.18
2018-05-25T11:09:02.436Z,27.22
2018-05-25T11:10:11.302Z,27.28
2018-05-25T11:11:20.603Z,27.36
2018-05-25T11:12:29.468Z,27.46
2018-05-25T11:13:38.336Z,27.43
2018-05-25T11:14:47.204Z,27.44
2018-05-25T11:15:56.072Z,27.41
2018-05-25T11:17:05.041Z,27.43
2018-05-25T11:18:14.186Z,27.43
2018-05-25T11:19:23.230Z,27.44
2018-05-25T11:20:32.536Z,27.46
2018-05-25T11:21:41.685Z,27.43
2018-05-25T11:22:50.908Z,27.49
2018-05-25T11:23:59.770Z,27.44
2018-05-25T11:25:08.925Z,27.44
2018-05-25T11:26:18.070Z,27.57
2018-05-25T11:27:26.939Z,27.59
2018-05-25T11:28:35.860Z,27.72
2018-05-25T11:29:44.728Z,27.82
2018-05-25T11:30:53.876Z,27.59
2018-05-25T11:32:02.745Z,27.81
2018-05-25T11:33:11.621Z,27.79
2018-05-25T11:34:20.964Z,27.88
2018-05-25T11:35:29.834Z,27.92
2018-05-25T11:36:38.702Z,27.88
2018-05-25T11:37:47.577Z,27.9
2018-05-25T11:38:56.724Z,27.99
2018-05-25T11:40:05.693Z,27.94
2018-05-25T11:41:14.563Z,28.04
2018-05-25T11:42:23.431Z,28.17
2018-05-25T11:43:32.300Z,28.22
2018-05-25T11:44:41.170Z,28.46
2018-05-25T11:45:50.743Z,28.37
2018-05-25T11:46:59.617Z,28.48
2018-05-25T11:48:08.481Z,28.29
2018-05-25T11:49:18.102Z,28.46
2018-05-25T11:50:27.252Z,28.44
2018-05-25T11:51:37.127Z,28.55
2018-05-25T11:52:46.550Z,28.58
2018-05-25T11:53:55.419Z,28.76
2018-05-25T11:55:04.289Z,28.67
2018-05-25T11:56:13.162Z,28.77
2018-05-25T11:57:22.482Z,28.92
2018-05-25T11:58:31.632Z,28.83
2018-05-25T11:59:40.506Z,28.92
2018-05-25T12:00:49.655Z,29.15
2018-05-25T12:01:58.804Z,29.16
2018-05-25T12:03:08.202Z,29.16
2018-05-25T12:04:17.074Z,29
2018-05-25T12:05:25.948Z,29.18
2018-05-25T12:06:34.851Z,29.24
2018-05-25T12:07:44.031Z,29.21
2018-05-25T12:08:53.001Z,29.36
2018-05-25T12:10:01.874Z,29.33
2018-05-25T12:11:10.746Z,29.42
2018-05-25T12:12:19.620Z,29.48
2018-05-25T12:13:28.774Z,29.48
2018-05-25T12:14:37.750Z,29.57
2018-05-25T12:15:46.623Z,29.49
2018-05-25T12:16:55.784Z,29.48
2018-05-25T12:18:04.659Z,29.98
2018-05-25T12:19:14.087Z,30.16
2018-05-25T12:20:23.114Z,30.22
2018-05-25T12:21:31.990Z,30.38
2018-05-25T12:22:40.867Z,30.46
2018-05-25T12:23:49.742Z,30.32
2018-05-25T12:24:58.619Z,30.08
2018-05-25T12:26:07.496Z,30.42
2018-05-25T12:27:16.373Z,30.57
2018-05-25T12:28:25.246Z,30.91
2018-05-25T12:29:34.122Z,31.02
2018-05-25T12:30:43.000Z,30.97
2018-05-25T12:31:51.930Z,30.95
2018-05-25T12:33:00.829Z,31.16
2018-05-25T12:34:09.701Z,31.44
2018-05-25T12:35:18.890Z,31.29
2018-05-25T12:36:27.776Z,31.43
2018-05-25T12:37:36.908Z,31.51
2018-05-25T12:38:46.074Z,31.51
2018-05-25T12:39:54.954Z,31.57
2018-05-25T12:41:04.127Z,31.19
2018-05-25T12:42:13.305Z,31.04
2018-05-25T12:43:22.608Z,31.16
2018-05-25T12:44:31.487Z,31.26
2018-05-25T12:45:40.376Z,31.36
2018-05-25T12:46:49.252Z,31.43
2018-05-25T12:47:58.134Z,31.63
2018-05-25T12:49:07.171Z,31.66
2018-05-25T12:50:16.049Z,31.46
2018-05-25T12:51:25.217Z,31.38
2018-05-25T12:52:34.092Z,31.5
2018-05-25T12:53:42.974Z,31.66
2018-05-25T12:54:52.383Z,31.7
2018-05-25T12:56:01.265Z,31.8
2018-05-25T12:57:10.145Z,32
2018-05-25T12:58:19.302Z,32.07
2018-05-25T12:59:28.184Z,32.32
2018-05-25T13:00:37.213Z,31.7
2018-05-25T13:01:46.094Z,31.76
2018-05-25T13:02:55.813Z,31.66
2018-05-25T13:04:04.693Z,31.84
2018-05-25T13:05:13.575Z,31.86
2018-05-25T13:06:22.937Z,31.81
2018-05-25T13:07:32.095Z,31.7
2018-05-25T13:08:40.975Z,31.46
2018-05-25T13:09:50.136Z,31.57
2018-05-25T13:10:59.019Z,31.63
2018-05-25T13:12:08.227Z,31.48
2018-05-25T13:13:17.111Z,31.69
2018-05-25T13:14:26.551Z,31.28
2018-05-25T13:15:35.430Z,31.43
2018-05-25T13:16:44.314Z,31.69
2018-05-25T13:17:53.618Z,31.84
2018-05-25T13:19:02.500Z,31.65
2018-05-25T13:20:11.380Z,32
2018-05-25T13:21:20.545Z,31.75
2018-05-25T13:22:29.704Z,31.85
2018-05-25T13:23:38.836Z,32.06
2018-05-25T13:24:47.716Z,32.23
2018-05-25T13:25:57.162Z,32.25
2018-05-25T13:27:06.596Z,32.38
2018-05-25T13:28:15.483Z,32.43
2018-05-25T13:29:25.092Z,32.55
2018-05-25T13:30:33.978Z,32.5
2018-05-25T13:31:42.854Z,32.48
2018-05-25T13:32:51.737Z,32.52
2018-05-25T13:34:00.618Z,32.82
2018-05-25T13:35:09.551Z,33.12
2018-05-25T13:36:18.436Z,33.23
2018-05-25T13:37:27.318Z,33.47
2018-05-25T13:38:36.481Z,32.96
2018-05-25T13:39:45.365Z,33
2018-05-25T13:40:54.581Z,33.15
2018-05-25T13:42:03.736Z,33.28
2018-05-25T13:43:12.895Z,33.18
2018-05-25T13:44:21.778Z,33.31
2018-05-25T13:45:30.665Z,33.39
2018-05-25T13:46:39.550Z,33.51
2018-05-25T13:47:48.434Z,33.5
2018-05-25T13:48:57.595Z,33.79
2018-05-25T13:50:06.479Z,33.88
2018-05-25T13:51:15.369Z,34
2018-05-25T13:52:24.352Z,34.27
2018-05-25T13:53:33.235Z,34.39
2018-05-25T13:54:42.127Z,34.1
2018-05-25T13:55:51.007Z,33.94
2018-05-25T13:56:59.891Z,33.98
2018-05-25T13:58:08.834Z,34
2018-05-25T13:59:18.264Z,33.5
2018-05-25T14:00:27.151Z,33.06
2018-05-25T14:01:36.313Z,32.65
2018-05-25T14:02:45.198Z,32.1
2018-05-25T14:03:54.507Z,32.23
2018-05-25T14:05:03.666Z,32.21
2018-05-25T14:06:12.546Z,31.95
2018-05-25T14:07:21.425Z,31.65
2018-05-25T14:08:30.308Z,31.46
2018-05-25T14:09:39.186Z,31.46
2018-05-25T14:10:48.070Z,31.56
2018-05-25T14:11:57.233Z,31.34
2018-05-25T14:13:06.378Z,31.01
2018-05-25T14:14:15.255Z,31.01
2018-05-25T14:15:24.234Z,30.92
2018-05-25T14:16:33.109Z,30.65
2018-05-25T14:17:41.991Z,30.38
2018-05-25T14:18:51.147Z,30.45
2018-05-25T14:20:00.024Z,30.51
2018-05-25T14:21:09.512Z,30.47
2018-05-25T14:22:18.668Z,30.49
2018-05-25T14:23:27.648Z,29.97
2018-05-25T14:24:37.079Z,29.85
2018-05-25T14:25:45.958Z,29.89
2018-05-25T14:26:55.458Z,29.9
2018-05-25T14:28:04.331Z,29.83
2018-05-25T14:29:13.201Z,29.94
2018-05-25T14:30:22.072Z,30.34
2018-05-25T14:31:31.256Z,30.86
2018-05-25T14:32:40.554Z,31.12
2018-05-25T14:33:49.431Z,31.16
2018-05-25T14:34:58.408Z,31.12
2018-05-25T14:36:07.610Z,30.8
2018-05-25T14:37:16.484Z,30.54
2018-05-25T14:38:25.412Z,30.32
2018-05-25T14:39:34.287Z,30.19
2018-05-25T14:40:43.165Z,30.17
2018-05-25T14:41:52.037Z,30.07
2018-05-25T14:43:01.198Z,30.01
2018-05-25T14:44:10.228Z,29.92
2018-05-25T14:45:19.380Z,29.83
2018-05-25T14:46:28.537Z,29.71
2018-05-25T14:47:37.414Z,29.9
2018-05-25T14:48:46.285Z,29.92
2018-05-25T14:49:55.212Z,29.73
2018-05-25T14:51:04.085Z,29.89
2018-05-25T14:52:12.961Z,29.92
2018-05-25T14:53:21.834Z,29.95